createdAt,value
2018-07-10T00:00:21.569Z,50.30
2018-07-10T00:01:04.971Z,50.20
2018-07-10T00:03:51.166Z,50.20
2018-07-10T00:04:35.012Z,50.20
2018-07-10T00:05:23.533Z,50.30
2018-07-10T00:09:17.881Z,50.40
2018-07-10T00:12:31.734Z,51.30
2018-07-10T00:13:05.905Z,51.10
2018-07-10T00:13:39.520Z,51.20
2018-07-10T00:14:14.320Z,51.10
2018-07-10T00:14:47.893Z,51.10
2018-07-10T00:15:22.376Z,51.00
2018-07-10T00:15:57.118Z,50.90
2018-07-10T00:16:30.687Z,50.90
2018-07-10T00:17:04.945Z,51.00
2018-07-10T00:17:38.488Z,51.00
2018-07-10T00:18:12.060Z,50.90
2018-07-10T00:18:45.696Z,50.90
2018-07-10T00:19:20.163Z,50.70
2018-07-10T00:19:53.799Z,50.60
2018-07-10T00:20:27.365Z,50.60
2018-07-10T00:21:01.012Z,50.70
2018-07-10T00:21:35.979Z,50.90
2018-07-10T00:22:09.659Z,51.00
2018-07-10T00:22:44.553Z,51.00
2018-07-10T00:23:18.242Z,51.00
2018-07-10T00:23:52.848Z,50.80
2018-07-10T00:24:26.949Z,50.60
2018-07-10T00:25:00.620Z,50.30
2018-07-10T00:25:34.372Z,49.90
2018-07-10T00:26:08.428Z,49.80
2018-07-10T00:26:42.078Z,49.80
2018-07-10T00:27:49.000Z,50.20
2018-07-10T00:28:22.660Z,49.40
2018-07-10T00:28:56.327Z,49.40
2018-07-10T00:30:03.260Z,49.50
2018-07-10T00:30:36.817Z,49.10
2018-07-10T00:31:10.398Z,49.00
2018-07-10T00:31:44.003Z,49.30
2018-07-10T00:32:17.640Z,49.00
2018-07-10T00:32:51.316Z,49.20
2018-07-10T00:33:25.339Z,49.40
2018-07-10T00:33:59.780Z,49.60
2018-07-10T00:34:33.392Z,49.50
2018-07-10T00:35:07.819Z,49.40
2018-07-10T00:35:42.008Z,49.50
2018-07-10T00:36:15.792Z,49.50
2018-07-10T00:36:49.435Z,49.40
2018-07-10T00:37:23.906Z,49.40
2018-07-10T00:38:08.489Z,49.40
2018-07-10T00:38:53.324Z,50.00
2018-07-10T00:39:26.946Z,49.90
2018-07-10T00:40:01.064Z,49.60
2018-07-10T00:40:35.310Z,49.80
2018-07-10T00:41:08.973Z,49.90
2018-07-10T00:41:42.739Z,50.00
2018-07-10T00:42:16.372Z,49.80
2018-07-10T00:42:50.059Z,49.70
2018-07-10T00:43:23.656Z,49.40
2018-07-10T00:43:58.140Z,49.50
2018-07-10T00:44:31.808Z,49.40
2018-07-10T00:45:05.463Z,49.40
2018-07-10T00:45:39.081Z,49.40
2018-07-10T00:46:13.378Z,49.40
2018-07-10T00:46:46.948Z,49.50
2018-07-10T00:47:20.544Z,49.60
2018-07-10T00:47:54.365Z,49.40
2018-07-10T00:48:29.283Z,49.50
2018-07-10T00:49:03.958Z,49.70
2018-07-10T00:49:37.586Z,49.90
2018-07-10T00:50:11.807Z,50.00
2018-07-10T00:50:45.502Z,50.10
2018-07-10T00:51:19.498Z,50.00
2018-07-10T00:51:53.822Z,50.00
2018-07-10T00:52:31.979Z,49.70
2018-07-10T00:53:05.631Z,50.20
2018-07-10T00:53:39.235Z,50.20
2018-07-10T00:54:13.493Z,50.20
2018-07-10T00:54:47.239Z,50.10
2018-07-10T00:55:20.834Z,49.90
2018-07-10T00:55:54.901Z,49.80
2018-07-10T00:56:29.090Z,49.50
2018-07-10T00:57:03.100Z,49.00
2018-07-10T00:57:36.773Z,48.50
2018-07-10T00:58:44.888Z,49.00
2018-07-10T00:59:19.283Z,48.20
2018-07-10T00:59:53.909Z,48.00
2018-07-10T01:00:31.178Z,48.10
2018-07-10T01:01:04.771Z,48.70
2018-07-10T01:01:38.399Z,48.00
2018-07-10T01:02:12.003Z,47.90
2018-07-10T01:02:45.723Z,48.10
2018-07-10T01:03:20.506Z,48.10
2018-07-10T01:03:54.873Z,47.80
2018-07-10T01:04:29.254Z,48.10
2018-07-10T01:05:02.889Z,47.90
2018-07-10T01:05:36.539Z,47.90
2018-07-10T01:06:10.131Z,48.10
2018-07-10T01:06:45.599Z,48.00
2018-07-10T01:07:19.285Z,47.70
2018-07-10T01:07:53.012Z,47.70
2018-07-10T01:08:27.136Z,47.90
2018-07-10T01:09:00.668Z,47.80
2018-07-10T01:09:34.261Z,47.70
2018-07-10T01:10:08.575Z,47.40
2018-07-10T01:10:43.951Z,47.60
2018-07-10T01:11:18.931Z,47.40
2018-07-10T01:11:53.288Z,47.20
2018-07-10T01:12:27.011Z,47.40
2018-07-10T01:13:00.659Z,47.50
2018-07-10T01:13:34.895Z,47.80
2018-07-10T01:14:08.592Z,47.90
2018-07-10T01:14:42.232Z,47.90
2018-07-10T01:15:16.672Z,48.00
2018-07-10T01:15:50.843Z,48.10
2018-07-10T01:16:29.065Z,48.00
2018-07-10T01:17:03.997Z,47.70
2018-07-10T01:17:37.672Z,48.20
2018-07-10T01:18:11.355Z,48.10
2018-07-10T01:18:45.879Z,48.00
2018-07-10T01:19:19.548Z,48.10
2018-07-10T01:19:53.943Z,48.00
2018-07-10T01:20:27.570Z,48.40
2018-07-10T01:21:01.189Z,48.90
2018-07-10T01:21:34.723Z,48.60
2018-07-10T01:22:08.362Z,48.60
2018-07-10T01:22:42.659Z,48.70
2018-07-10T01:23:17.055Z,48.80
2018-07-10T01:23:55.454Z,49.20
2018-07-10T01:24:29.128Z,49.20
2018-07-10T01:25:02.876Z,49.40
2018-07-10T01:25:36.529Z,49.60
2018-07-10T01:26:11.223Z,49.70
2018-07-10T01:26:44.925Z,49.50
2018-07-10T01:27:18.611Z,49.50
2018-07-10T01:27:52.699Z,49.60
2018-07-10T01:28:26.330Z,49.70
2018-07-10T01:30:04.951Z,49.60
2018-07-10T01:30:39.355Z,49.80
2018-07-10T01:31:13.055Z,50.10
2018-07-10T01:31:47.804Z,50.40
2018-07-10T01:32:21.593Z,50.40
2018-07-10T01:32:55.280Z,50.50
2018-07-10T01:33:28.931Z,50.40
2018-07-10T01:34:03.809Z,50.40
2018-07-10T01:34:37.465Z,50.50
2018-07-10T01:35:11.107Z,50.40
2018-07-10T01:35:46.233Z,50.60
2018-07-10T01:36:19.947Z,50.80
2018-07-10T01:36:56.732Z,51.10
2018-07-10T01:37:31.411Z,51.40
2018-07-10T01:38:06.144Z,51.60
2018-07-10T01:39:13.274Z,51.60
2018-07-10T01:39:46.999Z,51.80
2018-07-10T01:40:20.667Z,52.00
2018-07-10T01:40:54.879Z,51.90
2018-07-10T01:41:29.521Z,51.90
2018-07-10T01:42:03.266Z,52.10
2018-07-10T01:42:36.938Z,52.20
2018-07-10T01:43:11.159Z,52.30
2018-07-10T01:43:45.368Z,52.70
2018-07-10T01:44:19.120Z,52.80
2018-07-10T01:44:53.986Z,53.00
2018-07-10T01:45:27.656Z,53.00
2018-07-10T01:46:01.554Z,53.00
2018-07-10T01:46:35.171Z,52.90
2018-07-10T01:47:08.868Z,53.70
2018-07-10T01:47:42.495Z,53.00
2018-07-10T01:48:17.234Z,52.70
2018-07-10T01:48:50.878Z,52.70
2018-07-10T01:49:24.609Z,52.70
2018-07-10T01:49:58.799Z,52.80
2018-07-10T01:50:32.544Z,52.80
2018-07-10T01:51:06.124Z,53.00
2018-07-10T01:51:39.730Z,53.10
2018-07-10T01:52:13.385Z,53.20
2018-07-10T01:52:47.779Z,53.30
2018-07-10T01:53:22.507Z,53.30
2018-07-10T01:53:56.727Z,53.30
2018-07-10T01:54:30.922Z,53.20
2018-07-10T01:55:04.597Z,53.30
2018-07-10T01:55:38.295Z,53.40
2018-07-10T01:56:12.595Z,53.40
2018-07-10T01:56:46.295Z,53.40
2018-07-10T01:57:19.904Z,53.50
2018-07-10T01:57:55.916Z,53.40
2018-07-10T01:58:30.672Z,53.40
2018-07-10T01:59:04.379Z,53.30
2018-07-10T01:59:38.087Z,53.20
2018-07-10T02:00:11.865Z,53.90
2018-07-10T02:00:45.963Z,53.20
2018-07-10T02:01:20.353Z,53.00
2018-07-10T02:01:53.980Z,52.90
2018-07-10T02:02:28.168Z,52.90
2018-07-10T02:03:01.844Z,53.10
2018-07-10T02:03:36.310Z,53.10
2018-07-10T02:04:09.963Z,53.00
2018-07-10T02:04:44.156Z,52.90
2018-07-10T02:05:17.883Z,52.90
2018-07-10T02:05:52.159Z,52.90
2018-07-10T02:06:26.794Z,53.00
2018-07-10T02:07:01.222Z,52.90
2018-07-10T02:08:08.160Z,53.00
2018-07-10T02:08:41.883Z,52.90
2018-07-10T02:09:16.177Z,52.90
2018-07-10T02:09:51.218Z,52.80
2018-07-10T02:10:25.795Z,52.90
2018-07-10T02:10:59.988Z,53.00
2018-07-10T02:11:33.688Z,53.10
2018-07-10T02:12:07.313Z,53.20
2018-07-10T02:12:41.170Z,53.20
2018-07-10T02:13:14.806Z,53.00
2018-07-10T02:13:49.133Z,53.10
2018-07-10T02:14:22.749Z,53.10
2018-07-10T02:14:56.443Z,53.00
2018-07-10T02:15:30.112Z,53.00
2018-07-10T02:16:04.656Z,53.00
2018-07-10T02:16:38.297Z,52.80
2018-07-10T02:17:13.319Z,53.50
2018-07-10T02:17:47.517Z,52.80
2018-07-10T02:18:23.095Z,52.70
2018-07-10T02:18:56.811Z,52.80
2018-07-10T02:19:30.475Z,52.50
2018-07-10T02:20:04.444Z,52.10
2018-07-10T02:20:59.526Z,52.30
2018-07-10T02:21:33.175Z,52.30
2018-07-10T02:22:06.809Z,52.50
2018-07-10T02:22:40.812Z,52.60
2018-07-10T02:23:15.130Z,52.50
2018-07-10T02:23:49.541Z,52.40
2018-07-10T02:24:24.892Z,52.50
2018-07-10T02:24:58.589Z,52.80
2018-07-10T02:25:32.392Z,52.80
2018-07-10T02:26:40.939Z,52.90
2018-07-10T02:27:14.762Z,52.90
2018-07-10T02:27:48.556Z,52.80
2018-07-10T02:28:22.175Z,52.80
2018-07-10T02:28:56.434Z,52.70
2018-07-10T02:29:30.892Z,52.50
2018-07-10T02:30:04.658Z,52.50
2018-07-10T02:30:38.264Z,52.40
2018-07-10T02:31:12.344Z,52.40
2018-07-10T02:31:46.800Z,52.40
2018-07-10T02:32:20.342Z,52.30
2018-07-10T02:32:54.780Z,52.10
2018-07-10T02:33:28.563Z,52.10
2018-07-10T02:34:03.153Z,52.20
2018-07-10T02:34:36.871Z,52.10
2018-07-10T02:35:11.432Z,52.10
2018-07-10T02:35:45.481Z,51.90
2018-07-10T02:36:20.847Z,52.00
2018-07-10T02:36:55.017Z,52.00
2018-07-10T02:37:29.084Z,52.10
2018-07-10T02:38:03.507Z,51.70
2018-07-10T02:38:44.028Z,51.60
2018-07-10T02:39:19.102Z,51.70
2018-07-10T02:39:52.839Z,51.80
2018-07-10T02:40:27.064Z,51.90
2018-07-10T02:41:01.313Z,51.90
2018-07-10T02:41:35.600Z,51.80
2018-07-10T02:42:09.264Z,51.80
2018-07-10T02:42:43.604Z,51.90
2018-07-10T02:43:17.242Z,51.90
2018-07-10T02:43:59.780Z,51.90
2018-07-10T02:44:33.465Z,51.90
2018-07-10T02:45:07.093Z,51.80
2018-07-10T02:45:41.571Z,51.70
2018-07-10T02:46:15.243Z,51.60
2018-07-10T02:46:49.656Z,51.50
2018-07-10T02:47:23.349Z,51.30
2018-07-10T02:47:57.021Z,51.30
2018-07-10T02:49:09.340Z,51.30
2018-07-10T02:49:43.801Z,51.30
2018-07-10T02:50:17.478Z,51.10
2018-07-10T02:50:53.360Z,51.10
2018-07-10T02:51:28.239Z,51.00
2018-07-10T02:52:05.338Z,51.20
2018-07-10T02:52:41.472Z,51.10
2018-07-10T02:53:15.252Z,51.10
2018-07-10T02:53:49.186Z,51.00
2018-07-10T02:54:25.210Z,51.10
2018-07-10T02:54:59.664Z,51.10
2018-07-10T02:55:34.633Z,51.10
2018-07-10T02:56:11.281Z,51.00
2018-07-10T02:56:46.634Z,51.00
2018-07-10T02:57:54.193Z,51.00
2018-07-10T02:58:29.850Z,50.80
2018-07-10T02:59:04.485Z,50.90
2018-07-10T02:59:40.429Z,50.70
2018-07-10T03:00:14.203Z,50.70
2018-07-10T03:00:47.815Z,50.70
2018-07-10T03:01:21.552Z,50.50
2018-07-10T03:01:55.238Z,50.50
2018-07-10T03:02:29.746Z,50.60
2018-07-10T03:03:04.531Z,50.50
2018-07-10T03:03:41.103Z,50.70
2018-07-10T03:04:14.727Z,50.90
2018-07-10T03:04:49.177Z,50.80
2018-07-10T03:05:22.909Z,50.90
2018-07-10T03:05:56.653Z,50.80
2018-07-10T03:06:33.206Z,50.90
2018-07-10T03:07:06.972Z,50.90
2018-07-10T03:07:40.679Z,50.80
2018-07-10T03:08:14.437Z,50.80
2018-07-10T03:08:48.193Z,50.80
2018-07-10T03:09:22.337Z,50.70
2018-07-10T03:09:57.912Z,51.50
2018-07-10T03:10:32.356Z,50.90
2018-07-10T03:11:06.257Z,51.00
2018-07-10T03:11:40.191Z,51.00
2018-07-10T03:12:14.526Z,51.00
2018-07-10T03:12:48.204Z,50.90
2018-07-10T03:13:21.859Z,50.70
2018-07-10T03:13:55.505Z,50.70
2018-07-10T03:14:30.081Z,50.70
2018-07-10T03:15:11.647Z,50.70
2018-07-10T03:15:45.709Z,50.80
2018-07-10T03:16:20.101Z,50.80
2018-07-10T03:16:53.724Z,50.50
2018-07-10T03:17:28.201Z,50.50
2018-07-10T03:18:01.936Z,50.60
2018-07-10T03:18:35.606Z,50.60
2018-07-10T03:19:11.243Z,50.80
2018-07-10T03:19:44.948Z,50.60
2018-07-10T03:20:19.432Z,50.70
2018-07-10T03:20:53.055Z,50.60
2018-07-10T03:21:27.324Z,50.70
2018-07-10T03:22:01.696Z,50.60
2018-07-10T03:22:36.365Z,50.70
2018-07-10T03:23:10.086Z,50.90
2018-07-10T03:23:43.758Z,50.70
2018-07-10T03:25:25.251Z,50.80
2018-07-10T03:25:59.347Z,50.50
2018-07-10T03:26:33.017Z,50.30
2018-07-10T03:27:06.758Z,50.30
2018-07-10T03:27:41.590Z,50.50
2018-07-10T03:28:15.276Z,50.40
2018-07-10T03:28:49.582Z,50.50
2018-07-10T03:29:23.407Z,50.40
2018-07-10T03:29:58.554Z,50.50
2018-07-10T03:31:05.508Z,50.80
2018-07-10T03:31:39.205Z,50.60
2018-07-10T03:32:13.604Z,50.50
2018-07-10T03:32:47.441Z,50.60
2018-07-10T03:33:21.599Z,50.50
2018-07-10T03:33:55.228Z,50.50
2018-07-10T03:34:28.936Z,50.50
2018-07-10T03:35:03.518Z,50.50
2018-07-10T03:35:37.261Z,50.40
2018-07-10T03:36:10.933Z,50.40
2018-07-10T03:36:44.661Z,50.20
2018-07-10T03:37:18.336Z,50.20
2018-07-10T03:37:52.856Z,50.40
2018-07-10T03:38:26.559Z,50.60
2018-07-10T03:39:00.953Z,51.30
2018-07-10T03:39:38.227Z,50.60
2018-07-10T03:40:12.125Z,50.70
2018-07-10T03:40:46.889Z,50.70
2018-07-10T03:41:20.659Z,50.70
2018-07-10T03:41:54.277Z,50.80
2018-07-10T03:42:28.368Z,50.90
2018-07-10T03:43:02.129Z,50.80
2018-07-10T03:43:35.845Z,50.90
2018-07-10T03:44:10.193Z,51.00
2018-07-10T03:44:45.781Z,51.00
2018-07-10T03:45:20.166Z,50.90
2018-07-10T03:45:54.577Z,51.60
2018-07-10T03:47:01.871Z,50.90
2018-07-10T03:47:35.583Z,50.60
2018-07-10T03:48:09.514Z,50.50
2018-07-10T03:48:44.094Z,50.60
2018-07-10T03:49:17.784Z,50.60
2018-07-10T03:49:52.456Z,50.60
2018-07-10T03:50:26.900Z,50.80
2018-07-10T03:51:33.871Z,51.10
2018-07-10T03:52:07.545Z,51.00
2018-07-10T03:52:43.584Z,51.00
2018-07-10T03:53:17.339Z,51.10
2018-07-10T03:53:50.985Z,51.00
2018-07-10T03:54:25.643Z,50.90
2018-07-10T03:55:00.959Z,51.00
2018-07-10T03:55:38.052Z,51.00
2018-07-10T03:56:12.163Z,51.10
2018-07-10T03:56:46.933Z,51.10
2018-07-10T03:57:22.008Z,51.10
2018-07-10T03:57:59.620Z,51.00
2018-07-10T03:58:33.278Z,51.20
2018-07-10T03:59:06.912Z,51.10
2018-07-10T03:59:45.712Z,50.90
2018-07-10T04:00:19.415Z,51.30
2018-07-10T04:00:53.370Z,51.10
2018-07-10T04:01:34.493Z,51.00
2018-07-10T04:02:08.731Z,51.00
2018-07-10T04:02:45.225Z,51.00
2018-07-10T04:03:22.261Z,51.00
2018-07-10T04:03:55.956Z,51.00
2018-07-10T04:04:29.729Z,51.10
2018-07-10T04:05:04.163Z,51.10
2018-07-10T04:05:38.423Z,51.20
2018-07-10T04:06:12.036Z,51.10
2018-07-10T04:06:46.508Z,51.10
2018-07-10T04:07:20.196Z,51.10
2018-07-10T04:07:56.782Z,51.10
2018-07-10T04:08:30.452Z,51.10
2018-07-10T04:09:06.390Z,51.10
2018-07-10T04:09:40.961Z,51.00
2018-07-10T04:10:18.168Z,50.70
2018-07-10T04:10:51.855Z,50.60
2018-07-10T04:11:25.468Z,50.50
2018-07-10T04:11:59.660Z,50.40
2018-07-10T04:12:36.084Z,50.40
2018-07-10T04:13:12.249Z,50.60
2018-07-10T04:13:46.959Z,50.30
2018-07-10T04:14:22.771Z,50.50
2018-07-10T04:14:56.424Z,50.00
2018-07-10T04:15:31.103Z,50.60
2018-07-10T04:16:04.773Z,49.80
2018-07-10T04:16:38.688Z,49.60
2018-07-10T04:17:12.357Z,49.50
2018-07-10T04:18:03.200Z,49.60
2018-07-10T04:18:37.680Z,49.80
2018-07-10T04:19:12.118Z,49.90
2018-07-10T04:19:46.470Z,49.80
2018-07-10T04:20:20.664Z,49.90
2018-07-10T04:21:32.662Z,50.00
2018-07-10T04:22:06.390Z,50.10
2018-07-10T04:23:15.188Z,50.10
2018-07-10T04:24:09.584Z,50.00
2018-07-10T04:24:43.296Z,50.20
2018-07-10T04:25:17.584Z,50.20
2018-07-10T04:25:53.701Z,50.10
2018-07-10T04:26:27.369Z,50.10
2018-07-10T04:27:08.618Z,49.90
2018-07-10T04:27:51.487Z,49.80
2018-07-10T04:28:33.812Z,49.90
2018-07-10T04:29:10.966Z,49.90
2018-07-10T04:30:06.340Z,49.50
2018-07-10T04:30:51.056Z,49.60
2018-07-10T04:31:35.649Z,49.40
2018-07-10T04:32:13.190Z,49.30
2018-07-10T04:32:47.146Z,49.40
2018-07-10T04:33:20.846Z,49.10
2018-07-10T04:33:55.356Z,49.20
2018-07-10T04:34:31.845Z,49.30
2018-07-10T04:35:05.733Z,49.30
2018-07-10T04:35:39.392Z,49.30
2018-07-10T04:36:13.308Z,49.40
2018-07-10T04:36:47.732Z,49.50
2018-07-10T04:37:21.663Z,49.30
2018-07-10T04:37:55.873Z,49.40
2018-07-10T04:38:30.122Z,49.30
2018-07-10T04:39:04.135Z,49.40
2018-07-10T04:39:42.607Z,49.30
2018-07-10T04:40:16.300Z,49.20
2018-07-10T04:40:50.056Z,49.30
2018-07-10T04:41:26.906Z,49.30
2018-07-10T04:42:11.632Z,49.10
2018-07-10T04:43:05.068Z,49.50
2018-07-10T04:43:43.510Z,49.40
2018-07-10T04:44:18.298Z,49.30
2018-07-10T04:44:59.897Z,49.30
2018-07-10T04:45:40.844Z,49.50
2018-07-10T04:46:14.464Z,49.50
2018-07-10T04:46:55.551Z,49.40
2018-07-10T04:47:31.494Z,49.30
2018-07-10T04:48:05.343Z,48.90
2018-07-10T04:48:44.222Z,48.90
2018-07-10T04:49:40.812Z,49.00
2018-07-10T04:50:22.500Z,48.80
2018-07-10T04:51:04.056Z,48.70
2018-07-10T04:52:31.524Z,48.50
2018-07-10T04:55:14.144Z,48.40
2018-07-10T04:55:47.799Z,48.30
2018-07-10T04:56:21.481Z,48.30
2018-07-10T04:57:04.384Z,48.50
2018-07-10T04:57:44.716Z,48.60
2018-07-10T04:58:21.069Z,48.40
2018-07-10T04:58:56.104Z,48.40
2018-07-10T04:59:30.907Z,48.20
2018-07-10T05:00:06.003Z,48.50
2018-07-10T05:00:44.717Z,48.50
2018-07-10T05:01:18.383Z,48.60
2018-07-10T05:01:52.050Z,48.50
2018-07-10T05:02:26.775Z,48.50
2018-07-10T05:03:01.528Z,48.50
2018-07-10T05:03:35.187Z,48.60
2018-07-10T05:04:08.802Z,48.60
2018-07-10T05:04:42.457Z,48.70
2018-07-10T05:05:16.196Z,48.50
2018-07-10T05:05:50.024Z,48.30
2018-07-10T05:06:24.832Z,48.30
2018-07-10T05:07:01.401Z,48.90
2018-07-10T05:07:35.959Z,48.20
2018-07-10T05:08:09.671Z,48.20
2018-07-10T05:08:44.359Z,48.20
2018-07-10T05:09:18.003Z,48.20
2018-07-10T05:10:26.811Z,48.50
2018-07-10T05:11:36.834Z,48.40
2018-07-10T05:12:10.703Z,48.10
2018-07-10T05:13:18.351Z,48.60
2018-07-10T05:13:53.126Z,48.40
2018-07-10T05:14:26.799Z,48.40
2018-07-10T05:15:01.178Z,48.60
2018-07-10T05:15:35.700Z,48.80
2018-07-10T05:16:09.400Z,48.80
2018-07-10T05:16:43.096Z,48.80
2018-07-10T05:17:17.362Z,49.00
2018-07-10T05:17:52.308Z,49.00
2018-07-10T05:18:25.909Z,49.20
2018-07-10T05:18:59.669Z,49.20
2018-07-10T05:19:33.342Z,49.10
2018-07-10T05:20:07.504Z,49.10
2018-07-10T05:20:44.479Z,49.20
2018-07-10T05:21:18.116Z,49.30
2018-07-10T05:21:51.783Z,49.50
2018-07-10T05:22:27.358Z,49.40
2018-07-10T05:23:01.452Z,49.50
2018-07-10T05:23:35.156Z,49.50
2018-07-10T05:24:09.040Z,49.60
2018-07-10T05:24:43.664Z,49.60
2018-07-10T05:25:17.349Z,49.70
2018-07-10T05:25:54.429Z,49.80
2018-07-10T05:26:28.084Z,50.00
2018-07-10T05:27:02.509Z,49.90
2018-07-10T05:27:36.363Z,49.90
2018-07-10T05:28:11.209Z,49.90
2018-07-10T05:28:47.668Z,49.90
2018-07-10T05:29:21.340Z,50.00
2018-07-10T05:29:55.765Z,50.10
2018-07-10T05:30:30.579Z,50.20
2018-07-10T05:31:04.486Z,50.20
2018-07-10T05:31:38.494Z,50.20
2018-07-10T05:32:13.024Z,50.20
2018-07-10T05:32:46.967Z,50.30
2018-07-10T05:33:22.379Z,51.00
2018-07-10T05:33:57.068Z,50.40
2018-07-10T05:34:32.628Z,50.40
2018-07-10T05:35:06.277Z,50.40
2018-07-10T05:35:40.467Z,50.50
2018-07-10T05:36:14.164Z,50.70
2018-07-10T05:36:48.537Z,50.70
2018-07-10T05:37:31.335Z,50.80
2018-07-10T05:38:05.872Z,50.90
2018-07-10T05:38:44.638Z,50.90
2018-07-10T05:39:19.335Z,51.00
2018-07-10T05:39:52.953Z,51.00
2018-07-10T05:40:27.579Z,51.00
2018-07-10T05:41:01.254Z,51.00
2018-07-10T05:41:39.479Z,50.80
2018-07-10T05:42:14.063Z,50.90
2018-07-10T05:42:49.426Z,50.70
2018-07-10T05:43:23.232Z,50.60
2018-07-10T05:43:57.963Z,50.50
2018-07-10T05:44:32.150Z,50.60
2018-07-10T05:45:05.820Z,50.50
2018-07-10T05:45:40.078Z,50.50
2018-07-10T05:46:13.793Z,50.60
2018-07-10T05:46:47.814Z,50.50
2018-07-10T05:47:21.449Z,51.20
2018-07-10T05:47:59.614Z,50.40
2018-07-10T05:48:33.794Z,50.50
2018-07-10T05:49:08.091Z,50.30
2018-07-10T05:49:43.101Z,50.10
2018-07-10T05:50:17.715Z,50.30
2018-07-10T05:50:51.935Z,50.20
2018-07-10T05:51:28.756Z,50.30
2018-07-10T05:52:02.445Z,50.00
2018-07-10T05:52:36.382Z,50.20
2018-07-10T05:53:11.830Z,50.10
2018-07-10T05:53:46.269Z,50.00
2018-07-10T05:54:20.875Z,49.90
2018-07-10T05:55:30.549Z,50.00
2018-07-10T05:56:04.239Z,49.70
2018-07-10T05:56:38.676Z,49.80
2018-07-10T05:57:13.382Z,49.80
2018-07-10T05:57:47.334Z,49.70
2018-07-10T05:58:21.667Z,49.80
2018-07-10T05:58:56.312Z,49.70
2018-07-10T05:59:29.962Z,49.70
2018-07-10T06:00:03.621Z,49.60
2018-07-10T06:00:37.332Z,49.50
2018-07-10T06:01:12.870Z,49.40
2018-07-10T06:01:46.535Z,49.40
2018-07-10T06:02:20.211Z,49.40
2018-07-10T06:02:54.562Z,49.50
2018-07-10T06:03:28.292Z,49.60
2018-07-10T06:04:02.415Z,49.70
2018-07-10T06:05:12.390Z,50.10
2018-07-10T06:05:46.069Z,49.80
2018-07-10T06:06:19.768Z,49.90
2018-07-10T06:06:54.635Z,49.80
2018-07-10T06:07:29.095Z,49.80
2018-07-10T06:08:02.854Z,49.80
2018-07-10T06:08:36.667Z,49.80
2018-07-10T06:09:11.155Z,49.40
2018-07-10T06:09:44.859Z,49.50
2018-07-10T06:10:18.695Z,49.60
2018-07-10T06:10:52.471Z,49.50
2018-07-10T06:11:26.297Z,49.40
2018-07-10T06:12:00.775Z,49.10
2018-07-10T06:12:34.456Z,49.20
2018-07-10T06:13:08.743Z,49.30
2018-07-10T06:13:43.072Z,49.30
2018-07-10T06:14:16.777Z,49.30
2018-07-10T06:14:50.448Z,49.20
2018-07-10T06:15:24.138Z,49.30
2018-07-10T06:15:57.854Z,49.10
2018-07-10T06:16:32.701Z,49.20
2018-07-10T06:17:06.812Z,49.10
2018-07-10T06:17:41.300Z,49.10
2018-07-10T06:18:15.059Z,49.10
2018-07-10T06:18:49.484Z,49.70
2018-07-10T06:19:24.414Z,49.00
2018-07-10T06:19:59.302Z,49.20
2018-07-10T06:20:33.736Z,49.10
2018-07-10T06:21:08.004Z,49.20
2018-07-10T06:21:45.930Z,49.10
2018-07-10T06:22:19.613Z,48.60
2018-07-10T06:22:55.481Z,48.80
2018-07-10T06:23:33.956Z,48.60
2018-07-10T06:24:10.637Z,48.60
2018-07-10T06:24:45.312Z,48.60
2018-07-10T06:25:19.000Z,49.40
2018-07-10T06:25:53.528Z,48.90
2018-07-10T06:26:27.200Z,48.80
2018-07-10T06:27:05.962Z,48.80
2018-07-10T06:27:45.380Z,48.70
2018-07-10T06:28:59.688Z,48.90
2018-07-10T06:29:45.399Z,48.70
2018-07-10T06:30:19.293Z,48.70
2018-07-10T06:30:54.419Z,48.30
2018-07-10T06:31:33.509Z,48.10
2018-07-10T06:32:07.800Z,47.60
2018-07-10T06:32:53.040Z,47.90
2018-07-10T06:33:27.904Z,48.20
2018-07-10T06:34:07.747Z,47.70
2018-07-10T06:34:41.443Z,48.80
2018-07-10T06:35:15.265Z,47.60
2018-07-10T06:35:55.154Z,47.70
2018-07-10T06:36:32.312Z,48.40
2018-07-10T06:37:10.021Z,48.10
2018-07-10T06:38:19.445Z,48.20
2018-07-10T06:38:54.719Z,47.70
2018-07-10T06:39:28.267Z,47.90
2018-07-10T06:40:05.688Z,47.70
2018-07-10T06:40:42.047Z,47.40
2018-07-10T06:41:17.363Z,47.30
2018-07-10T06:42:04.492Z,47.60
2018-07-10T06:42:43.595Z,48.10
2018-07-10T06:43:25.283Z,48.10
2018-07-10T06:43:59.731Z,48.10
2018-07-10T06:44:36.366Z,47.80
2018-07-10T06:45:11.337Z,47.30
2018-07-10T06:45:45.115Z,47.80
2018-07-10T06:46:22.764Z,47.70
2018-07-10T06:47:01.334Z,47.40
2018-07-10T06:47:44.372Z,47.40
2018-07-10T06:48:18.041Z,48.10
2018-07-10T06:48:54.477Z,47.50
2018-07-10T06:49:31.856Z,47.40
2018-07-10T06:50:05.494Z,48.00
2018-07-10T06:50:39.179Z,47.60
2018-07-10T06:51:16.465Z,47.70
2018-07-10T06:52:00.477Z,48.40
2018-07-10T06:52:34.454Z,47.80
2018-07-10T06:53:08.535Z,48.10
2018-07-10T06:54:15.076Z,48.60
2018-07-10T06:55:05.325Z,48.00
2018-07-10T06:55:59.568Z,48.50
2018-07-10T06:56:33.298Z,47.80
2018-07-10T06:57:07.420Z,47.70
2018-07-10T06:57:47.123Z,47.30
2018-07-10T06:58:22.645Z,46.90
2018-07-10T06:58:56.688Z,46.70
2018-07-10T06:59:30.317Z,47.00
2018-07-10T07:00:09.368Z,46.90
2018-07-10T07:00:43.036Z,47.30
2018-07-10T07:01:16.731Z,46.80
2018-07-10T07:01:50.346Z,46.70
2018-07-10T07:02:23.971Z,46.90
2018-07-10T07:02:57.797Z,46.90
2018-07-10T07:03:32.195Z,46.70
2018-07-10T07:04:07.405Z,46.70
2018-07-10T07:04:41.987Z,47.10
2018-07-10T07:05:15.691Z,46.90
2018-07-10T07:05:49.381Z,46.90
2018-07-10T07:06:23.561Z,46.90
2018-07-10T07:06:57.331Z,46.70
2018-07-10T07:07:32.775Z,46.80
2018-07-10T07:08:40.355Z,47.30
2018-07-10T07:09:13.996Z,46.70
2018-07-10T07:09:47.673Z,46.80
2018-07-10T07:10:22.107Z,46.50
2018-07-10T07:10:55.785Z,46.50
2018-07-10T07:11:30.240Z,46.40
2018-07-10T07:12:04.186Z,46.50
2018-07-10T07:12:39.311Z,47.30
2018-07-10T07:13:13.618Z,46.70
2018-07-10T07:13:48.031Z,46.50
2018-07-10T07:14:22.324Z,46.50
2018-07-10T07:14:55.922Z,46.60
2018-07-10T07:15:29.597Z,46.50
2018-07-10T07:16:03.291Z,46.60
2018-07-10T07:16:37.021Z,46.70
2018-07-10T07:17:12.000Z,46.50
2018-07-10T07:17:49.722Z,46.60
2018-07-10T07:18:24.956Z,46.40
2018-07-10T07:18:58.663Z,46.50
2018-07-10T07:19:33.728Z,46.60
2018-07-10T07:20:07.970Z,46.60
2018-07-10T07:20:42.336Z,46.70
2018-07-10T07:21:16.017Z,46.20
2018-07-10T07:21:50.433Z,46.50
2018-07-10T07:22:26.378Z,46.60
2018-07-10T07:23:00.116Z,46.50
2018-07-10T07:23:34.759Z,46.60
2018-07-10T07:24:09.872Z,46.50
2018-07-10T07:24:44.378Z,46.60
2018-07-10T07:25:19.454Z,46.60
2018-07-10T07:25:55.526Z,46.70
2018-07-10T07:26:29.179Z,46.70
2018-07-10T07:27:03.358Z,46.70
2018-07-10T07:27:38.308Z,46.60
2018-07-10T07:28:12.738Z,46.60
2018-07-10T07:28:46.406Z,46.60
2018-07-10T07:29:20.183Z,46.80
2018-07-10T07:29:54.598Z,46.80
2018-07-10T07:30:28.960Z,46.70
2018-07-10T07:31:02.774Z,46.70
2018-07-10T07:31:37.083Z,46.90
2018-07-10T07:32:11.478Z,46.70
2018-07-10T07:32:45.761Z,46.70
2018-07-10T07:33:19.983Z,46.60
2018-07-10T07:33:53.555Z,46.70
2018-07-10T07:34:27.245Z,46.90
2018-07-10T07:35:00.902Z,47.00
2018-07-10T07:35:34.588Z,47.10
2018-07-10T07:36:08.938Z,47.20
2018-07-10T07:36:43.986Z,46.90
2018-07-10T07:37:19.236Z,46.90
2018-07-10T07:37:53.371Z,47.00
2018-07-10T07:38:28.613Z,47.20
2018-07-10T07:39:04.656Z,46.90
2018-07-10T07:39:38.397Z,47.10
2018-07-10T07:40:13.016Z,47.20
2018-07-10T07:40:46.707Z,47.30
2018-07-10T07:41:20.375Z,47.20
2018-07-10T07:41:54.072Z,47.10
2018-07-10T07:42:28.818Z,47.00
2018-07-10T07:43:02.526Z,46.70
2018-07-10T07:43:36.789Z,47.00
2018-07-10T07:44:10.562Z,46.80
2018-07-10T07:44:45.943Z,46.90
2018-07-10T07:45:19.608Z,46.90
2018-07-10T07:45:54.111Z,46.80
2018-07-10T07:46:27.818Z,46.80
2018-07-10T07:47:01.431Z,46.70
2018-07-10T07:47:35.104Z,46.30
2018-07-10T07:48:08.841Z,46.30
2018-07-10T07:48:42.588Z,46.50
2018-07-10T07:49:17.055Z,46.60
2018-07-10T07:49:51.217Z,46.20
2018-07-10T07:50:25.751Z,46.70
2018-07-10T07:51:00.688Z,46.50
2018-07-10T07:51:35.471Z,46.70
2018-07-10T07:52:09.294Z,46.70
2018-07-10T07:52:43.102Z,46.60
2018-07-10T07:53:16.767Z,46.60
2018-07-10T07:53:52.279Z,46.50
2018-07-10T07:54:27.256Z,46.60
2018-07-10T07:55:03.081Z,46.50
2018-07-10T07:55:37.591Z,46.40
2018-07-10T07:56:12.655Z,46.50